Time;durP1;ratioP1;P1;durP2;ratioP2;P2;SDS_P1;SDS_P2;PMS_P1;PMS_P2;Temp;Humidity;BMP_temperature;BMP_pressure;BME280_temperature;BME280_humidity;BME280_pressure;Samples;Min_cycle;Max_cycle;Signal;HPM_P1;HPM_P2
2022/01/16 00:04:11;;;;;;;1.33;0.10;;;;;;;1.73;59.42;99716.15;1784145;79;21009;-58
2022/01/16 00:06:42;;;;;;;3.20;0.17;;;;;;;1.72;59.13;99709.08;1789239;79;21077;-61
2022/01/16 00:09:10;;;;;;;0.30;0.20;;;;;;;1.72;59.07;99715.72;1787833;79;20998;-61
2022/01/16 00:11:37;;;;;;;0.50;0.20;;;;;;;1.72;58.88;99717.49;1787415;79;21197;-59
2022/01/16 00:14:06;;;;;;;0.57;0.13;;;;;;;1.71;58.83;99717.94;1789601;79;21229;-58
2022/01/16 00:16:32;;;;;;;2.47;0.20;;;;;;;1.72;58.90;99722.80;1784912;79;21496;-59
2022/01/16 00:18:58;;;;;;;1.60;0.20;;;;;;;1.72;58.73;99726.78;1784333;79;21092;-58
2022/01/16 00:21:32;;;;;;;0.87;0.30;;;;;;;1.72;58.94;99721.02;1787595;79;21036;-58
2022/01/16 00:23:58;;;;;;;1.00;0.20;;;;;;;1.74;58.74;99726.31;1785891;79;21996;-58
2022/01/16 00:26:25;;;;;;;0.40;0.20;;;;;;;1.72;58.55;99728.98;1784091;79;20974;-58
2022/01/16 00:28:51;;;;;;;0.60;0.20;;;;;;;1.72;58.56;99730.31;1789298;79;20949;-58
2022/01/16 00:31:19;;;;;;;0.50;0.20;;;;;;;1.72;58.43;99738.27;1786954;79;20985;-60
2022/01/16 00:33:45;;;;;;;0.80;0.20;;;;;;;1.71;58.41;99732.53;1788245;78;21465;-60
2022/01/16 00:36:17;;;;;;;0.83;0.20;;;;;;;1.73;58.11;99723.23;1787370;79;22263;-60
2022/01/16 00:38:44;;;;;;;0.50;0.10;;;;;;;1.70;58.21;99710.02;1785000;79;21074;-59
2022/01/16 00:41:12;;;;;;;2.27;0.30;;;;;;;1.70;57.53;99698.08;1781738;79;21043;-57
2022/01/16 00:43:39;;;;;;;1.53;0.10;;;;;;;1.68;57.36;99708.71;1775624;79;21100;-59
2022/01/16 00:46:05;;;;;;;0.40;0.10;;;;;;;1.68;57.62;99722.42;1774292;79;21026;-60
2022/01/16 00:48:32;;;;;;;0.43;0.10;;;;;;;1.68;57.59;99730.39;1771610;79;21120;-58
2022/01/16 00:50:59;;;;;;;0.30;0.10;;;;;;;1.68;57.69;99727.29;1780110;79;20899;-57
2022/01/16 00:53:25;;;;;;;0.40;0.10;;;;;;;1.69;57.66;99722.86;1774373;79;21069;-60
2022/01/16 00:55:52;;;;;;;0.97;0.20;;;;;;;1.69;57.51;99714.90;1771934;79;21026;-59
2022/01/16 00:58:18;;;;;;;1.13;0.10;;;;;;;1.68;57.46;99719.33;1773365;79;21370;-62
2022/01/16 01:00:44;;;;;;;0.37;0.10;;;;;;;1.67;57.26;99715.36;1730187;81;21050;-58
2022/01/16 01:03:12;;;;;;;0.53;0.20;;;;;;;1.63;56.56;99694.61;1719308;81;21054;-57
2022/01/16 01:05:39;;;;;;;0.30;0.10;;;;;;;1.62;56.72;99686.22;1718350;81;21034;-60
2022/01/16 01:08:05;;;;;;;0.97;0.20;;;;;;;1.62;56.92;99701.26;1718815;81;21073;-61
2022/01/16 01:10:37;;;;;;;0.83;0.10;;;;;;;1.61;56.86;99722.08;1722586;81;21061;-57
2022/01/16 01:15:48;;;;;;;1.50;0.10;;;;;;;1.62;57.16;99738.40;1716544;81;21057;-59
2022/01/16 01:18:14;;;;;;;0.40;0.10;;;;;;;1.63;57.23;99738.39;1727004;81;20912;-60
2022/01/16 01:20:41;;;;;;;0.50;0.17;;;;;;;1.63;57.07;99719.81;1708823;83;21360;-57
2022/01/16 01:23:10;;;;;;;1.30;0.10;;;;;;;1.62;57.16;99722.48;1701514;83;21010;-60
2022/01/16 01:25:37;;;;;;;0.60;0.20;;;;;;;1.62;57.32;99756.97;1726160;81;21077;-59
2022/01/16 01:28:05;;;;;;;1.10;0.30;;;;;;;1.63;57.14;99761.39;1713588;83;21277;-59
2022/01/16 01:30:31;;;;;;;1.50;0.20;;;;;;;1.64;57.14;99757.84;1725757;81;20872;-58
2022/01/16 01:32:58;;;;;;;0.80;0.10;;;;;;;1.64;57.12;99787.03;1725059;81;20943;-59
2022/01/16 01:35:25;;;;;;;1.43;0.10;;;;;;;1.64;57.18;99755.19;1724367;81;21947;-59
2022/01/16 01:37:51;;;;;;;0.70;0.23;;;;;;;1.65;57.22;99791.00;1723632;81;21522;-60
2022/01/16 01:40:21;;;;;;;0.30;0.10;;;;;;;1.67;57.39;99812.21;1729914;79;22091;-59
2022/01/16 01:51:07;;;;;;;0.60;0.10;;;;;;;1.69;57.26;99644.14;1768730;79;20876;-58
2022/01/16 01:53:33;;;;;;;0.40;0.10;;;;;;;1.69;57.18;99629.99;1770135;79;20925;-60
2022/01/16 01:56:00;;;;;;;0.50;0.10;;;;;;;1.66;57.24;99644.16;1768040;79;20970;-57
2022/01/16 01:58:26;;;;;;;0.40;0.10;;;;;;;1.65;57.41;99652.14;1769350;79;20907;-59
2022/01/16 02:00:52;;;;;;;0.70;0.20;;;;;;;1.63;57.58;99684.44;1772648;79;21017;-58
2022/01/16 02:03:27;;;;;;;1.53;0.20;;;;;;;1.63;57.65;99709.65;1771209;79;21021;-59
2022/01/16 02:05:47;;;;;;;0.40;0.10;;;;;;;1.64;57.71;99714.94;1767647;79;21615;-60
2022/01/16 02:08:15;;;;;;;1.53;0.20;;;;;;;1.65;57.79;99712.72;1765505;79;21015;-59
2022/01/16 02:10:42;;;;;;;1.40;0.50;;;;;;;1.67;57.81;99714.03;1762451;79;21015;-60
2022/01/16 02:13:17;;;;;;;0.43;0.20;;;;;;;1.67;58.01;99737.91;1765206;79;21062;-58
2022/01/16 02:31:37;;;;;;;0.53;0.30;;;;;;;1.65;58.60;99724.66;1764484;79;21462;-56
2022/01/16 02:36:53;;;;;;;0.98;0.25;;;;;;;1.64;58.96;99744.58;1767650;79;21074;-56
2022/01/16 02:39:16;;;;;;;1.57;0.20;;;;;;;1.63;59.15;99751.66;1767265;79;21069;-56
2022/01/16 02:41:44;;;;;;;0.47;0.17;;;;;;;1.61;59.22;99756.13;1772682;79;23249;-56
2022/01/16 02:44:22;;;;;;;0.70;0.27;;;;;;;1.61;59.32;99769.39;1773881;79;21085;-56
2022/01/16 02:46:45;;;;;;;0.80;0.20;;;;;;;1.62;59.47;99775.55;1776395;79;21166;-57
2022/01/16 02:49:28;;;;;;;0.60;0.20;;;;;;;1.60;59.59;99786.20;1775484;79;21159;-59
2022/01/16 02:52:01;;;;;;;0.93;0.30;;;;;;;1.61;59.71;99787.09;1770647;79;21073;-57
2022/01/16 02:54:28;;;;;;;0.70;0.20;;;;;;;1.60;59.79;99777.36;1776634;78;21208;-60
2022/01/16 02:56:55;;;;;;;1.77;0.20;;;;;;;1.60;59.95;99776.04;1774263;79;21093;-58
2022/01/16 02:59:24;;;;;;;1.40;0.77;;;;;;;1.58;60.05;99775.17;1773519;79;21374;-56
2022/01/16 03:01:50;;;;;;;1.17;0.20;;;;;;;1.58;60.16;99777.38;1774010;79;21085;-56
2022/01/16 03:04:17;;;;;;;0.90;0.20;;;;;;;1.58;60.31;99772.07;1778116;79;21088;-58
2022/01/16 03:06:43;;;;;;;0.77;0.20;;;;;;;1.59;60.38;99776.93;1774076;79;21704;-58
2022/01/16 03:09:10;;;;;;;0.90;0.10;;;;;;;1.60;60.50;99777.36;1771337;79;21040;-56
2022/01/16 03:11:41;;;;;;;0.87;0.20;;;;;;;1.60;60.62;99781.34;1774429;79;21047;-59
2022/01/16 03:14:12;;;;;;;1.60;0.30;;;;;;;1.58;60.73;99791.97;1774240;79;21077;-56
2022/01/16 03:16:42;;;;;;;0.93;0.30;;;;;;;1.56;60.88;99790.22;1770773;79;21089;-61
2022/01/16 03:21:57;;;;;;;;;;;;;;;1.55;61.13;99796.41;1773876;79;21280;-58
2022/01/16 03:24:36;;;;;;;0.50;0.20;;;;;;;1.53;61.28;99790.27;1770232;79;20303;-58
2022/01/16 03:27:09;;;;;;;3.50;0.30;;;;;;;1.51;61.35;99788.96;1772438;79;21019;-57
2022/01/16 03:29:36;;;;;;;3.40;0.37;;;;;;;1.49;61.43;99799.58;1774521;79;20966;-58
2022/01/16 03:32:04;;;;;;;1.07;0.20;;;;;;;1.47;61.50;99804.46;1775605;79;21115;-56
2022/01/16 03:34:31;;;;;;;0.43;0.20;;;;;;;1.46;61.63;99803.58;1772740;79;21033;-55
2022/01/16 03:36:58;;;;;;;0.53;0.10;;;;;;;1.47;61.44;99796.50;1771185;79;21314;-57
2022/01/16 03:39:24;;;;;;;0.63;0.10;;;;;;;1.46;61.46;99806.23;1770468;79;21052;-57
2022/01/16 03:41:50;;;;;;;1.53;0.20;;;;;;;1.45;61.40;99811.11;1780764;79;21335;-59
2022/01/16 03:44:17;;;;;;;0.50;0.20;;;;;;;1.44;61.26;99800.09;1788485;79;21675;-57
2022/01/16 03:46:43;;;;;;;2.10;0.10;;;;;;;1.46;61.27;99815.96;1783992;79;22547;-55
2022/01/16 03:49:17;;;;;;;2.00;0.20;;;;;;;1.45;61.09;99818.18;1789790;79;21503;-58
2022/01/16 03:51:45;;;;;;;1.17;0.10;;;;;;;1.43;61.11;99812.04;1783981;79;21677;-56
2022/01/16 03:54:13;;;;;;;1.93;0.50;;;;;;;1.42;61.18;99804.97;1784890;79;21030;-59
2022/01/16 03:56:40;;;;;;;1.53;0.30;;;;;;;1.43;61.15;99814.69;1785090;79;21136;-58
2022/01/16 03:59:08;;;;;;;0.40;0.20;;;;;;;1.42;61.31;99815.58;1790185;79;21130;-58
2022/01/16 04:01:34;;;;;;;0.77;0.23;;;;;;;1.43;61.29;99817.34;1784304;79;21109;-59
2022/01/16 04:04:01;;;;;;;0.37;0.20;;;;;;;1.41;61.33;99812.05;1783123;79;21133;-57
2022/01/16 04:08:54;;;;;;;2.60;0.20;;;;;;;1.41;61.01;99816.03;1842624;75;26464;-58
2022/01/16 04:11:26;;;;;;;2.30;0.23;;;;;;;1.35;60.98;99816.10;1803594;77;20968;-58
2022/01/16 04:14:02;;;;;;;0.60;0.23;;;;;;;1.35;60.96;99808.59;1812797;77;22066;-57
2022/01/16 04:16:23;;;;;;;0.70;0.20;;;;;;;1.35;60.87;99801.95;1810281;77;20842;-58
2022/01/16 04:18:51;;;;;;;1.50;0.17;;;;;;;1.34;60.74;99805.05;1809438;77;20857;-57
2022/01/16 04:21:18;;;;;;;1.97;0.20;;;;;;;1.33;60.65;99816.55;1812358;77;20956;-58
2022/01/16 04:23:45;;;;;;;4.07;0.30;;;;;;;1.32;60.56;99804.19;1814205;77;20881;-56
2022/01/16 04:26:11;;;;;;;0.47;0.30;;;;;;;1.33;60.48;99813.91;1817165;77;21745;-57
2022/01/16 04:28:37;;;;;;;0.50;0.30;;;;;;;1.34;60.56;99818.31;1812730;77;21332;-57
2022/01/16 04:31:04;;;;;;;2.20;0.40;;;;;;;1.36;60.61;99815.17;1809720;77;21430;-56
2022/01/16 04:33:31;;;;;;;0.53;0.30;;;;;;;1.38;60.59;99817.37;1772029;78;20881;-56
2022/01/16 04:35:58;;;;;;;1.10;0.30;;;;;;;1.39;60.58;99814.27;1774259;79;20973;-55
2022/01/16 04:38:24;;;;;;;1.17;0.20;;;;;;;1.39;60.54;99813.83;1772305;78;21132;-56
2022/01/16 04:43:54;;;;;;;1.65;0.28;;;;;;;1.38;60.57;99817.37;1774796;78;21363;-58
2022/01/16 04:46:19;;;;;;;1.73;0.20;;;;;;;1.40;60.52;99818.69;1752672;80;20919;-57
2022/01/16 04:48:46;;;;;;;0.43;0.20;;;;;;;1.40;60.43;99823.99;1769510;78;21367;-57
2022/01/16 04:51:14;;;;;;;0.50;0.20;;;;;;;1.36;60.48;99821.80;1775310;79;21398;-57
2022/01/16 04:53:41;;;;;;;0.67;0.17;;;;;;;1.36;60.58;99829.77;1775671;78;20871;-56
2022/01/16 04:56:08;;;;;;;0.60;0.43;;;;;;;1.35;60.61;99828.48;1769911;78;20893;-57
2022/01/16 04:58:35;;;;;;;0.50;0.20;;;;;;;1.35;60.51;99832.45;1759032;79;20936;-56
2022/01/16 05:01:01;;;;;;;0.63;0.20;;;;;;;1.34;60.59;99834.67;1736279;80;21040;-57
2022/01/16 05:03:29;;;;;;;0.70;0.20;;;;;;;1.34;60.47;99839.98;1761128;78;21124;-59
2022/01/16 05:05:56;;;;;;;1.07;0.20;;;;;;;1.32;60.31;99843.08;1756518;79;21510;-60
2022/01/16 05:08:23;;;;;;;1.10;0.30;;;;;;;1.31;60.09;99843.97;1759995;79;20955;-58
2022/01/16 05:10:53;;;;;;;0.70;0.13;;;;;;;1.30;60.00;99852.38;1761323;79;21730;-58
2022/01/16 05:18:36;;;;;;;1.47;0.27;;;;;;;1.24;59.22;99852.44;1736986;80;21083;-59
2022/01/16 05:21:02;;;;;;;1.13;0.20;;;;;;;1.23;58.97;99859.95;1736126;80;21060;-58
2022/01/16 05:23:29;;;;;;;0.93;0.20;;;;;;;1.23;58.84;99859.95;1754334;79;21351;-57
2022/01/16 05:25:55;;;;;;;0.93;0.20;;;;;;;1.23;58.33;99867.03;1752762;79;21094;-59
2022/01/16 05:28:22;;;;;;;0.80;0.17;;;;;;;1.21;57.93;99859.09;1760758;79;22187;-58
2022/01/16 05:30:48;;;;;;;2.93;0.20;;;;;;;1.20;57.73;99871.91;1761698;79;21452;-59
2022/01/16 05:33:14;;;;;;;0.40;0.20;;;;;;;1.19;57.43;99865.31;1742733;79;22166;-58
2022/01/16 05:35:41;;;;;;;0.87;0.20;;;;;;;1.21;57.36;99865.71;1742981;79;21541;-59
2022/01/16 05:38:08;;;;;;;2.10;0.20;;;;;;;1.21;56.96;99863.06;1748786;79;20878;-57
2022/01/16 05:40:35;;;;;;;0.83;0.27;;;;;;;1.18;56.93;99864.44;1751616;79;21093;-56
2022/01/16 05:43:02;;;;;;;0.97;0.20;;;;;;;1.18;57.32;99871.06;1742727;79;21545;-58
2022/01/16 05:45:29;;;;;;;0.80;0.30;;;;;;;1.18;57.36;99879.02;1743218;79;21497;-58
2022/01/16 05:47:55;;;;;;;0.57;0.20;;;;;;;1.20;57.45;99875.88;1753370;79;22202;-58
2022/01/16 05:50:22;;;;;;;1.97;0.30;;;;;;;1.22;57.60;99874.11;1745269;79;21130;-58
2022/01/16 05:52:49;;;;;;;0.80;0.20;;;;;;;1.24;57.76;99873.66;1747322;79;22457;-58
2022/01/16 05:55:16;;;;;;;1.00;0.20;;;;;;;1.26;57.78;99874.52;1748202;79;21341;-58
2022/01/16 05:57:43;;;;;;;0.60;0.20;;;;;;;1.27;57.91;99879.39;1751184;79;21087;-59
2022/01/16 06:00:11;;;;;;;1.00;0.20;;;;;;;1.26;57.92;99881.16;1747853;79;21170;-58
2022/01/16 06:02:38;;;;;;;0.40;0.20;;;;;;;1.26;58.07;99880.27;1750882;79;21072;-58
2022/01/16 06:05:05;;;;;;;1.63;0.30;;;;;;;1.27;58.21;99882.03;1747980;79;23299;-58
2022/01/16 06:07:32;;;;;;;1.63;0.20;;;;;;;1.27;58.26;99882.92;1748388;79;21057;-59
2022/01/16 06:09:58;;;;;;;0.70;0.30;;;;;;;1.26;58.53;99877.63;1742428;81;21004;-57
2022/01/16 06:12:25;;;;;;;1.70;0.20;;;;;;;1.25;58.66;99877.19;1742865;79;22431;-60
2022/01/16 06:14:51;;;;;;;1.23;0.30;;;;;;;1.24;58.74;99889.56;1745293;79;21645;-60
2022/01/16 06:17:17;;;;;;;3.13;0.20;;;;;;;1.22;58.92;99895.77;1745903;81;21123;-59
2022/01/16 06:19:43;;;;;;;0.93;0.50;;;;;;;1.22;58.94;99890.45;1756521;79;21052;-60
2022/01/16 06:22:10;;;;;;;1.63;0.30;;;;;;;1.23;59.15;99891.78;1749293;79;21077;-60
2022/01/16 06:24:36;;;;;;;0.40;0.20;;;;;;;1.24;59.08;99897.96;1743830;79;21564;-58
2022/01/16 06:27:03;;;;;;;1.07;0.30;;;;;;;1.25;59.02;99896.63;1748150;79;23410;-59
2022/01/16 06:29:30;;;;;;;0.60;0.30;;;;;;;1.25;59.03;99900.61;1743606;79;21128;-60
2022/01/16 06:31:56;;;;;;;1.27;0.97;;;;;;;1.26;59.01;99898.39;1746087;79;21127;-60
2022/01/16 06:34:22;;;;;;;0.60;0.20;;;;;;;1.26;58.95;99905.02;1741966;79;21116;-59
2022/01/16 06:36:48;;;;;;;1.30;0.27;;;;;;;1.26;58.93;99909.00;1761681;79;21058;-60
2022/01/16 06:39:15;;;;;;;1.30;0.30;;;;;;;1.27;58.91;99909.44;1779953;79;21293;-60
2022/01/16 06:41:41;;;;;;;0.83;0.20;;;;;;;1.27;58.80;99911.20;1769778;79;23324;-60
2022/01/16 06:44:08;;;;;;;0.60;0.30;;;;;;;1.26;58.60;99906.34;1738566;80;21055;-59
2022/01/16 06:46:34;;;;;;;0.50;0.20;;;;;;;1.27;58.21;99905.46;1748773;79;21089;-60
2022/01/16 06:49:00;;;;;;;0.73;0.40;;;;;;;1.26;57.68;99912.98;1758746;79;21087;-62
2022/01/16 06:51:26;;;;;;;2.87;0.23;;;;;;;1.25;57.76;99907.68;1746869;79;21539;-60
2022/01/16 06:53:56;;;;;;;1.33;0.27;;;;;;;1.23;57.53;99906.80;1735313;80;21251;-57
2022/01/16 06:56:23;;;;;;;1.87;0.30;;;;;;;1.23;57.27;99905.03;1742150;79;21092;-57
2022/01/16 06:58:49;;;;;;;1.10;0.30;;;;;;;1.25;57.25;99918.29;1730617;81;21093;-58
2022/01/16 07:01:16;;;;;;;0.90;0.20;;;;;;;1.27;57.04;99912.53;1762350;79;20952;-58
2022/01/16 07:03:42;;;;;;;0.63;0.30;;;;;;;1.26;57.15;99910.77;1759980;79;20965;-59
2022/01/16 07:06:09;;;;;;;0.57;0.47;;;;;;;1.27;57.12;99916.06;1742918;79;21083;-57
2022/01/16 07:08:36;;;;;;;1.17;0.20;;;;;;;1.27;57.24;99924.47;1756978;79;21134;-59
2022/01/16 07:11:02;;;;;;;0.40;0.20;;;;;;;1.26;57.35;99928.01;1728874;80;21104;-60
2022/01/16 07:13:29;;;;;;;0.70;0.20;;;;;;;1.29;57.47;99917.35;1748671;79;20996;-58
2022/01/16 07:15:56;;;;;;;0.77;0.20;;;;;;;1.31;57.51;99929.72;1734007;80;20896;-59
2022/01/16 07:18:22;;;;;;;1.17;0.30;;;;;;;1.33;57.57;99935.90;1732550;80;21159;-59
2022/01/16 07:20:48;;;;;;;1.17;0.50;;;;;;;1.35;57.60;99927.94;1724069;81;20921;-58
2022/01/16 07:23:15;;;;;;;0.70;0.30;;;;;;;1.36;57.47;99932.35;1727270;80;20974;-58
2022/01/16 07:25:42;;;;;;;0.70;0.30;;;;;;;1.33;57.52;99939.87;1728281;80;20964;-57
2022/01/16 07:28:08;;;;;;;1.10;0.30;;;;;;;1.35;57.65;99937.22;1736000;80;20981;-58
2022/01/16 07:30:36;;;;;;;2.17;0.40;;;;;;;1.36;57.64;99938.50;1759043;79;21942;-58
2022/01/16 07:33:05;;;;;;;1.77;0.30;;;;;;;1.36;57.57;99950.44;1735056;80;20918;-59
2022/01/16 07:35:32;;;;;;;0.83;0.40;;;;;;;1.37;57.34;99952.20;1734695;80;20913;-60
2022/01/16 07:37:58;;;;;;;1.73;0.43;;;;;;;1.36;57.10;99947.78;1717655;81;20934;-58
2022/01/16 07:40:25;;;;;;;0.70;0.30;;;;;;;1.35;57.00;99950.03;1758809;79;20955;-60
2022/01/16 07:42:52;;;;;;;0.50;0.30;;;;;;;1.34;56.62;99961.53;1727175;80;20901;-59
2022/01/16 07:45:20;;;;;;;1.10;0.20;;;;;;;1.34;56.31;99957.55;1732686;80;20886;-61
2022/01/16 07:47:47;;;;;;;0.50;0.30;;;;;;;1.33;55.82;99946.50;1731708;80;21374;-59
2022/01/16 07:50:14;;;;;;;2.70;0.20;;;;;;;1.34;55.73;99948.27;1754766;79;21209;-59
2022/01/16 07:52:41;;;;;;;0.43;0.20;;;;;;;1.36;55.32;99948.27;1754706;79;21417;-60
2022/01/16 07:55:07;;;;;;;2.90;0.20;;;;;;;1.34;55.14;99937.66;1754607;79;21460;-57
2022/01/16 07:57:34;;;;;;;0.50;0.20;;;;;;;1.32;55.12;99933.25;1726716;80;21092;-58
2022/01/16 08:00:00;;;;;;;0.60;0.20;;;;;;;1.31;55.36;99941.66;1730011;80;21084;-57
2022/01/16 08:02:27;;;;;;;0.73;0.23;;;;;;;1.31;55.22;99942.98;1749563;79;21044;-59
2022/01/16 08:04:53;;;;;;;0.77;0.20;;;;;;;1.32;55.42;99934.58;1751416;79;21549;-60
2022/01/16 08:07:19;;;;;;;2.20;0.23;;;;;;;1.34;55.48;99940.75;1752573;79;22231;-56
2022/01/16 08:09:45;;;;;;;1.83;0.20;;;;;;;1.34;55.03;99944.73;1765187;78;21573;-57
2022/01/16 08:12:12;;;;;;;1.27;0.20;;;;;;;1.33;54.90;99953.58;1742214;80;21164;-57
2022/01/16 08:14:39;;;;;;;0.50;0.20;;;;;;;1.34;54.93;99948.27;1738533;80;21560;-57
2022/01/16 08:17:06;;;;;;;1.80;0.10;;;;;;;1.35;54.47;99956.66;1767755;80;21617;-58
2022/01/16 08:19:32;;;;;;;0.40;0.20;;;;;;;1.35;54.19;99953.13;1762171;79;21549;-59
2022/01/16 08:21:59;;;;;;;1.33;0.20;;;;;;;1.33;53.99;99951.81;1759601;79;21507;-57
2022/01/16 08:24:26;;;;;;;0.50;0.10;;;;;;;1.34;54.11;99951.37;1759482;80;21106;-58
2022/01/16 08:26:52;;;;;;;0.40;0.20;;;;;;;1.33;54.27;99954.91;1755110;80;21094;-58
2022/01/16 08:29:20;;;;;;;0.50;0.20;;;;;;;1.33;54.31;99949.60;1753928;79;21090;-58
2022/01/16 08:31:46;;;;;;;0.40;0.20;;;;;;;1.37;54.40;99948.66;1759856;79;21109;-57
2022/01/16 08:34:12;;;;;;;0.50;0.20;;;;;;;1.40;54.39;99957.49;1759052;80;21097;-57
2022/01/16 08:36:39;;;;;;;0.70;0.30;;;;;;;1.40;54.36;99952.19;1758596;80;21166;-57
2022/01/16 08:39:06;;;;;;;0.80;0.30;;;;;;;1.43;54.47;99949.97;1761790;79;21071;-57
2022/01/16 08:41:32;;;;;;;1.23;0.20;;;;;;;1.46;54.46;99960.53;1757099;80;21062;-59
2022/01/16 08:43:58;;;;;;;1.77;0.40;;;;;;;1.48;54.37;99964.06;1758368;79;21742;-58
2022/01/16 08:46:25;;;;;;;1.50;0.27;;;;;;;1.48;54.72;99966.27;1762714;79;21501;-57
2022/01/16 08:48:51;;;;;;;2.33;0.40;;;;;;;1.50;54.82;99951.67;1760838;80;21572;-59
2022/01/16 08:51:18;;;;;;;1.43;0.40;;;;;;;1.54;54.84;99948.08;1761245;80;21090;-56
2022/01/16 08:53:45;;;;;;;1.80;0.40;;;;;;;1.56;55.08;99943.64;1758228;79;21092;-59
2022/01/16 08:56:14;;;;;;;0.50;0.30;;;;;;;1.59;55.34;99948.05;1760147;79;21441;-62
2022/01/16 08:58:41;;;;;;;0.67;0.30;;;;;;;1.60;55.31;99952.47;1762847;79;21114;-61
2022/01/16 09:01:07;;;;;;;0.60;0.30;;;;;;;1.57;55.43;99947.19;1760192;79;21106;-60
2022/01/16 09:03:34;;;;;;;2.40;0.40;;;;;;;1.54;55.54;99940.12;1762513;79;21045;-59
2022/01/16 09:06:00;;;;;;;1.30;0.30;;;;;;;1.53;55.46;99934.86;1760673;79;21126;-61
2022/01/16 09:08:27;;;;;;;1.20;0.40;;;;;;;1.50;55.39;99932.66;1756923;79;21093;-60
2022/01/16 09:10:53;;;;;;;1.53;0.30;;;;;;;1.50;55.35;99939.73;1757871;79;21062;-59
2022/01/16 09:13:19;;;;;;;0.93;0.30;;;;;;;1.51;55.42;99929.11;1757891;78;21383;-58
2022/01/16 09:15:47;;;;;;;2.87;0.30;;;;;;;1.53;55.32;99929.11;1760304;79;21729;-58
2022/01/16 09:18:14;;;;;;;1.97;0.30;;;;;;;1.55;55.33;99924.64;1753632;79;21098;-60
2022/01/16 09:20:41;;;;;;;1.53;0.27;;;;;;;1.57;55.03;99921.53;1763414;79;21758;-57
2022/01/16 09:23:08;;;;;;;0.70;0.20;;;;;;;1.55;54.64;99913.14;1758007;79;21417;-59
2022/01/16 09:25:34;;;;;;;1.70;0.33;;;;;;;1.53;54.58;99918.02;1759989;78;21059;-59
2022/01/16 09:28:01;;;;;;;0.77;0.23;;;;;;;1.50;54.43;99918.51;1731286;80;21046;-60
2022/01/16 09:30:27;;;;;;;0.33;0.20;;;;;;;1.50;54.55;99910.55;1754536;80;21037;-59
2022/01/16 09:32:54;;;;;;;0.90;0.20;;;;;;;1.49;54.42;99909.67;1744484;80;21469;-59
2022/01/16 09:35:20;;;;;;;1.97;0.27;;;;;;;1.48;54.44;99908.35;1731691;80;21563;-59
2022/01/16 09:37:46;;;;;;;1.10;0.20;;;;;;;1.47;54.41;99909.24;1725342;80;21078;-57
2022/01/16 09:40:16;;;;;;;2.17;0.27;;;;;;;1.48;54.31;99906.58;1758040;79;21044;-59
2022/01/16 09:42:42;;;;;;;0.60;0.30;;;;;;;1.48;54.12;99898.62;1753849;79;21048;-57
2022/01/16 09:45:11;;;;;;;1.73;0.23;;;;;;;1.48;53.99;99904.38;1737414;80;21140;-57
2022/01/16 09:47:37;;;;;;;0.83;0.20;;;;;;;1.47;54.13;99894.20;1739319;80;21101;-58
2022/01/16 09:50:07;;;;;;;1.60;0.30;;;;;;;1.47;53.82;99898.19;1738397;79;21080;-58
2022/01/16 09:52:37;;;;;;;0.67;0.30;;;;;;;1.47;53.97;99887.58;1740891;80;21093;-58
2022/01/16 09:55:05;;;;;;;0.60;0.30;;;;;;;1.47;53.97;99888.91;1738836;81;21104;-58
2022/01/16 09:57:31;;;;;;;1.40;0.30;;;;;;;1.48;54.03;99895.97;1742996;79;22626;-57
2022/01/16 09:59:58;;;;;;;0.70;0.20;;;;;;;1.48;54.12;99897.73;1738036;80;21041;-58
2022/01/16 10:02:25;;;;;;;1.63;0.20;;;;;;;1.47;54.10;99903.49;1738617;79;21332;-58
2022/01/16 10:04:55;;;;;;;0.83;0.20;;;;;;;1.49;54.18;99902.16;1749742;79;21254;-57
2022/01/16 10:07:21;;;;;;;0.90;0.20;;;;;;;1.49;53.88;99909.67;1758720;79;21456;-58
2022/01/16 10:10:09;;;;;;;0.57;0.20;;;;;;;1.48;54.17;99893.76;1757966;79;21456;-59
2022/01/16 10:12:41;;;;;;;1.47;0.20;;;;;;;1.47;54.25;99890.23;1755509;79;21512;-57
2022/01/16 10:15:21;;;;;;;0.43;0.20;;;;;;;1.49;54.08;99899.06;1759255;79;21080;-59
2022/01/16 10:17:50;;;;;;;1.13;0.20;;;;;;;1.46;54.11;99883.61;1762901;79;21244;-58
2022/01/16 10:20:16;;;;;;;0.73;0.27;;;;;;;1.43;54.04;99893.82;1784661;78;20959;-59
2022/01/16 10:22:48;;;;;;;0.70;0.30;;;;;;;1.40;54.18;99893.84;1783171;78;21034;-59
2022/01/16 10:25:16;;;;;;;0.47;0.20;;;;;;;1.41;54.33;99883.66;1785981;78;20945;-59
2022/01/16 10:27:44;;;;;;;1.87;0.30;;;;;;;1.46;54.52;99895.55;1787279;78;20941;-58
2022/01/16 10:30:14;;;;;;;1.10;0.30;;;;;;;1.50;54.36;99893.31;1788566;78;21297;-57
2022/01/16 10:32:43;;;;;;;1.60;0.40;;;;;;;1.51;54.39;99890.65;1786266;78;20919;-59
2022/01/16 10:35:23;;;;;;;1.00;0.30;;;;;;;1.54;54.22;99895.02;1786805;78;21062;-58
2022/01/16 10:37:54;;;;;;;0.70;0.30;;;;;;;1.56;54.13;99884.40;1784817;78;21361;-59
2022/01/16 10:40:33;;;;;;;1.17;0.20;;;;;;;1.58;53.97;99887.48;1786680;78;21475;-56
2022/01/16 10:43:05;;;;;;;0.63;0.20;;;;;;;1.58;53.88;99878.64;1784280;78;20894;-59
2022/01/16 10:45:29;;;;;;;1.93;0.40;;;;;;;1.58;53.98;99879.97;1783748;78;20933;-59
2022/01/16 10:47:57;;;;;;;0.87;0.30;;;;;;;1.57;53.60;99879.53;1788100;78;21082;-58
2022/01/16 10:50:25;;;;;;;0.90;0.30;;;;;;;1.55;53.64;99895.45;1788497;78;20914;-57
2022/01/16 10:53:05;;;;;;;0.50;0.20;;;;;;;1.53;53.47;99889.76;1785005;78;20989;-58
2022/01/16 10:55:40;;;;;;;0.93;0.30;;;;;;;1.49;53.44;99878.28;1785025;78;20980;-58
2022/01/16 10:58:12;;;;;;;1.00;0.17;;;;;;;1.48;53.32;99894.64;1727702;81;20933;-59
2022/01/16 11:01:00;;;;;;;1.57;0.20;;;;;;;1.47;53.09;99873.43;1746226;79;21827;-58
2022/01/16 11:03:26;;;;;;;0.63;0.20;;;;;;;1.45;52.82;99872.56;1754597;79;21115;-58
2022/01/16 11:05:52;;;;;;;0.40;0.20;;;;;;;1.42;52.85;99875.26;1749181;79;21029;-59
2022/01/16 11:08:21;;;;;;;0.40;0.20;;;;;;;1.44;52.75;99874.81;1749980;79;20925;-57
2022/01/16 11:10:50;;;;;;;0.53;0.20;;;;;;;1.44;52.76;99874.81;1751620;79;21029;-58
2022/01/16 11:13:19;;;;;;;1.17;0.30;;;;;;;1.42;52.44;99881.45;1753323;79;21105;-57
2022/01/16 11:15:51;;;;;;;1.67;0.30;;;;;;;1.39;52.20;99880.14;1751525;79;20865;-58
2022/01/16 11:18:18;;;;;;;0.37;0.20;;;;;;;1.35;52.52;99887.70;1751594;79;21699;-58
2022/01/16 11:20:55;;;;;;;0.47;0.20;;;;;;;1.34;52.88;99877.11;1754009;79;20949;-58
2022/01/16 11:25:40;;;;;;;2.30;0.30;;;;;;;1.38;52.87;99871.74;1753169;79;21135;-58
2022/01/16 11:28:11;;;;;;;0.67;0.20;;;;;;;1.41;53.12;99870.84;1750107;79;21096;-57
2022/01/16 11:30:43;;;;;;;1.53;0.30;;;;;;;1.43;52.98;99857.13;1755172;79;21325;-56
2022/01/16 11:33:09;;;;;;;0.97;0.27;;;;;;;1.44;52.89;99864.20;1750325;79;21323;-57
2022/01/16 11:35:45;;;;;;;0.70;0.20;;;;;;;1.43;52.80;99864.64;1750080;80;22258;-59
2022/01/16 11:38:12;;;;;;;3.10;0.20;;;;;;;1.43;52.71;99860.66;1750842;79;21119;-59
2022/01/16 11:40:44;;;;;;;2.53;0.27;;;;;;;1.44;52.72;99865.08;1752582;79;21084;-59
2022/01/16 11:43:14;;;;;;;0.50;0.20;;;;;;;1.45;52.54;99870.78;1751335;79;21058;-56
2022/01/16 11:45:47;;;;;;;1.03;0.20;;;;;;;1.47;52.68;99862.38;1745434;79;21064;-58
2022/01/16 11:48:28;;;;;;;0.40;0.20;;;;;;;1.46;52.64;99855.30;1748388;79;21025;-57
2022/01/16 11:50:54;;;;;;;1.17;0.20;;;;;;;1.48;52.73;99856.17;1712803;79;21199;-58
2022/01/16 11:53:59;;;;;;;0.50;0.20;;;;;;;1.49;52.58;99865.02;1752753;79;21577;-58
2022/01/16 11:59:23;;;;;;;3.60;0.30;;;;;;;1.48;52.39;99848.22;1854455;75;26327;-58
2022/01/16 12:02:02;;;;;;;1.53;0.30;;;;;;;1.42;52.41;99852.72;1813175;77;20956;-55
2022/01/16 12:04:36;;;;;;;0.90;0.17;;;;;;;1.47;52.63;99852.20;1774350;78;21358;-56
2022/01/16 12:07:20;;;;;;;2.13;0.30;;;;;;;1.49;52.62;99847.33;1734742;80;21521;-56
2022/01/16 12:09:57;;;;;;;0.75;0.30;;;;;;;1.48;52.37;99836.73;1758218;79;21056;-60
2022/01/16 12:12:31;;;;;;;1.13;0.40;;;;;;;1.49;52.57;99838.49;1755346;79;20978;-57
2022/01/16 12:15:18;;;;;;;2.37;0.30;;;;;;;1.53;52.75;99845.98;1755153;79;21049;-60
2022/01/16 12:17:48;;;;;;;0.80;0.30;;;;;;;1.56;52.73;99841.50;1760361;79;21240;-59
2022/01/16 12:20:23;;;;;;;1.13;0.40;;;;;;;1.59;52.78;99840.60;1777530;78;20893;-56
2022/01/16 12:22:56;;;;;;;1.37;0.30;;;;;;;1.56;52.52;99845.48;1777036;78;20980;-58
2022/01/16 12:25:41;;;;;;;0.90;0.33;;;;;;;1.52;52.58;99854.39;1759757;79;21093;-59
2022/01/16 12:28:15;;;;;;;2.00;0.30;;;;;;;1.49;52.32;99849.10;1764602;78;21081;-57
2022/01/16 12:30:55;;;;;;;1.50;0.43;;;;;;;1.44;52.59;99841.66;1757646;79;21092;-58
2022/01/16 12:33:45;;;;;;;0.90;0.20;;;;;;;1.41;52.54;99848.30;1763471;79;20950;-59
2022/01/16 12:36:19;;;;;;;5.70;0.30;;;;;;;1.41;52.55;99845.65;1733868;79;21526;-59
2022/01/16 12:38:53;;;;;;;1.25;0.40;;;;;;;1.40;52.54;99849.19;1755749;79;21766;-56